Time;durP1;ratioP1;P1;durP2;ratioP2;P2;SDS_P1;SDS_P2;PMS_P1;PMS_P2;Temp;Humidity;BMP_temperature;BMP_pressure;BME280_temperature;BME280_humidity;BME280_pressure;Samples;Min_cycle;Max_cycle;Signal;HPM_P1;HPM_P2
2023/01/11 00:01:51;;;;;;;2.70;1.87;;;10.40;58.00;;;;;;5027496;28;20431;-58
2023/01/11 00:04:17;;;;;;;7.60;2.00;;;10.40;57.00;;;;;;5028861;28;20480;-57
2023/01/11 00:06:43;;;;;;;2.33;1.37;;;10.60;56.70;;;;;;5029631;28;20827;-57
2023/01/11 00:09:08;;;;;;;2.43;1.50;;;10.80;56.00;;;;;;5031391;28;20203;-57
2023/01/11 00:11:34;;;;;;;3.07;1.50;;;11.10;55.90;;;;;;5028110;28;20439;-57
2023/01/11 00:14:00;;;;;;;2.30;1.50;;;11.00;54.80;;;;;;5027236;28;20216;-57
2023/01/11 00:16:25;;;;;;;1.60;1.50;;;11.00;54.50;;;;;;5028525;28;20193;-57
2023/01/11 00:18:51;;;;;;;6.10;1.70;;;11.20;55.10;;;;;;5030744;28;20189;-57
2023/01/11 00:21:16;;;;;;;4.17;1.47;;;11.10;55.20;;;;;;5031121;28;20557;-57
2023/01/11 00:23:42;;;;;;;3.10;1.70;;;11.30;55.10;;;;;;5027295;28;20231;-57
2023/01/11 00:26:11;;;;;;;2.60;1.57;;;11.50;54.40;;;;;;5033337;28;20199;-57
2023/01/11 00:28:36;;;;;;;3.03;1.43;;;11.40;54.10;;;;;;5022745;28;20194;-57
2023/01/11 00:31:02;;;;;;;2.40;1.70;;;11.20;53.50;;;;;;5027468;28;20827;-57
2023/01/11 00:33:28;;;;;;;1.77;1.50;;;11.30;54.10;;;;;;5027242;28;20221;-57
2023/01/11 00:35:54;;;;;;;2.70;1.33;;;11.20;53.70;;;;;;5027283;28;20233;-57
2023/01/11 00:49:29;;;;;;;2.43;1.40;;;11.80;52.80;;;;;;5027398;28;20447;-57
2023/01/11 00:51:55;;;;;;;1.17;1.07;;;11.60;53.20;;;;;;5024993;28;20440;-57
2023/01/11 00:54:20;;;;;;;2.10;1.30;;;11.70;53.70;;;;;;5024271;28;20476;-57
2023/01/11 00:56:46;;;;;;;1.83;1.27;;;11.70;54.00;;;;;;5030405;28;20443;-57
2023/01/11 00:59:12;;;;;;;5.43;1.53;;;11.70;53.60;;;;;;5029324;28;20185;-57
2023/01/11 01:01:38;;;;;;;8.20;1.63;;;11.60;53.80;;;;;;5025880;28;20229;-58
2023/01/11 01:04:04;;;;;;;2.37;1.27;;;11.70;54.10;;;;;;5020664;28;20556;-57
2023/01/11 01:06:30;;;;;;;1.33;1.10;;;11.60;53.80;;;;;;5030543;28;20204;-57
2023/01/11 01:08:55;;;;;;;1.90;1.10;;;11.70;54.60;;;;;;5025936;28;20584;-57
2023/01/11 01:11:21;;;;;;;2.33;1.50;;;11.70;54.60;;;;;;5022900;28;20562;-57
2023/01/11 01:16:31;;;;;;;1.30;0.90;;;11.80;53.80;;;;;;5027698;28;20446;-57
2023/01/11 01:18:58;;;;;;;3.07;0.80;;;11.90;54.30;;;;;;5026319;28;20444;-57
2023/01/11 01:21:25;;;;;;;1.30;1.20;;;12.10;54.50;;;;;;5022833;28;20523;-57
2023/01/11 01:23:52;;;;;;;3.33;1.70;;;12.20;54.40;;;;;;5019849;28;20454;-57
2023/01/11 01:26:17;;;;;;;1.97;1.07;;;12.20;54.30;;;;;;5031179;28;20417;-57
2023/01/11 01:28:43;;;;;;;3.97;1.20;;;12.10;53.90;;;;;;5028009;28;20447;-57
2023/01/11 01:31:08;;;;;;;3.43;1.73;;;12.10;54.60;;;;;;5022046;28;20202;-57
2023/01/11 01:33:35;;;;;;;1.30;1.10;;;12.20;54.60;;;;;;5028600;28;20316;-57
2023/01/11 01:36:01;;;;;;;2.20;1.00;;;12.20;54.50;;;;;;5023959;28;20289;-57
2023/01/11 01:38:27;;;;;;;1.40;1.17;;;12.20;54.50;;;;;;5017928;28;20441;-57
2023/01/11 01:40:53;;;;;;;1.60;1.17;;;12.20;54.80;;;;;;5024668;28;20490;-57
2023/01/11 01:43:18;;;;;;;2.10;1.37;;;12.30;54.90;;;;;;5022330;28;20189;-58
2023/01/11 01:45:44;;;;;;;2.20;1.33;;;12.30;55.00;;;;;;5023303;28;20641;-57
2023/01/11 01:48:14;;;;;;;2.20;1.00;;;11.90;55.80;;;;;;5029727;28;20200;-57
2023/01/11 01:50:52;;;;;;;1.93;1.00;;;11.80;56.20;;;;;;5030502;28;20193;-57
2023/01/11 01:53:40;;;;;;;2.23;1.10;;;11.90;56.50;;;;;;5029337;28;20484;-57
2023/01/11 01:56:12;;;;;;;1.57;1.47;;;11.90;56.30;;;;;;5031016;28;20439;-57
2023/01/11 01:58:44;;;;;;;2.33;1.03;;;11.80;56.90;;;;;;5027473;28;20424;-57
2023/01/11 02:03:57;;;;;;;2.93;1.37;;;12.30;56.20;;;;;;5029414;28;20467;-57
2023/01/11 02:06:24;;;;;;;3.53;1.17;;;12.40;56.00;;;;;;5028605;28;20432;-57
2023/01/11 02:08:56;;;;;;;1.67;1.00;;;12.60;55.70;;;;;;5025429;28;20433;-57
2023/01/11 02:11:29;;;;;;;2.20;1.03;;;12.60;55.40;;;;;;5022300;28;20440;-57
2023/01/11 02:14:01;;;;;;;1.10;1.00;;;12.70;55.50;;;;;;5029565;28;20694;-57
2023/01/11 02:16:27;;;;;;;1.17;1.07;;;12.70;55.20;;;;;;5029304;28;20440;-57
2023/01/11 02:18:55;;;;;;;2.30;0.80;;;12.80;55.30;;;;;;5027913;28;20486;-57
2023/01/11 02:21:35;;;;;;;0.90;0.90;;;12.90;55.20;;;;;;5028603;28;20280;-57
2023/01/11 02:24:33;;;;;;;1.37;1.13;;;12.90;55.20;;;;;;5029163;28;20451;-57
2023/01/11 02:27:42;;;;;;;2.57;1.20;;;13.00;55.20;;;;;;5029354;28;20459;-57
2023/01/11 02:30:30;;;;;;;1.00;0.90;;;13.00;55.30;;;;;;5018798;28;20448;-57
2023/01/11 02:33:13;;;;;;;2.87;1.37;;;13.00;55.30;;;;;;5017093;28;20576;-57
2023/01/11 02:35:48;;;;;;;1.70;1.10;;;12.80;55.40;;;;;;5019744;28;20437;-57
2023/01/11 02:38:20;;;;;;;1.63;0.80;;;12.60;56.20;;;;;;5024072;28;20439;-57
2023/01/11 02:41:23;;;;;;;1.10;0.93;;;12.70;56.50;;;;;;5027889;28;20464;-57
2023/01/11 02:46:56;;;;;;;4.10;1.00;;;12.60;57.10;;;;;;5017417;28;20454;-57
2023/01/11 02:49:53;;;;;;;1.80;1.20;;;12.60;56.90;;;;;;5020660;28;20452;-57
2023/01/11 02:52:51;;;;;;;1.67;1.20;;;12.80;56.80;;;;;;5020186;28;20464;-57
2023/01/11 02:55:24;;;;;;;0.80;0.73;;;12.90;56.60;;;;;;5023899;28;20468;-57
2023/01/11 02:57:53;;;;;;;1.80;1.00;;;12.90;56.50;;;;;;5024115;28;20467;-57
2023/01/11 03:00:20;;;;;;;1.43;0.90;;;12.90;56.80;;;;;;5019423;28;20529;-57
2023/01/11 03:02:45;;;;;;;2.97;0.90;;;13.00;56.60;;;;;;5023481;28;20554;-57
2023/01/11 03:05:14;;;;;;;2.00;0.90;;;13.00;56.60;;;;;;5018625;28;20538;-57
2023/01/11 03:08:04;;;;;;;1.33;1.20;;;12.80;56.70;;;;;;5021667;28;20547;-57
2023/01/11 03:10:39;;;;;;;2.27;0.90;;;12.70;57.10;;;;;;5023946;28;20506;-57
2023/01/11 03:13:19;;;;;;;1.80;0.80;;;12.30;57.90;;;;;;5022735;28;21038;-57
2023/01/11 03:16:08;;;;;;;2.13;1.10;;;12.30;58.00;;;;;;5014319;28;20435;-57
2023/01/11 03:18:42;;;;;;;1.53;0.90;;;12.50;58.30;;;;;;5024195;28;20495;-57
2023/01/11 03:21:32;;;;;;;1.90;1.10;;;12.60;57.70;;;;;;5022936;28;20497;-57
2023/01/11 03:24:10;;;;;;;1.33;1.00;;;12.70;57.60;;;;;;5021462;28;20982;-57
2023/01/11 03:26:51;;;;;;;1.10;1.00;;;12.80;57.50;;;;;;5024361;28;20465;-58
2023/01/11 03:29:34;;;;;;;2.17;1.00;;;12.90;57.30;;;;;;5029307;28;20451;-57
2023/01/11 03:32:06;;;;;;;1.40;0.97;;;12.80;57.10;;;;;;5023393;28;20552;-58
2023/01/11 03:34:36;;;;;;;1.10;1.00;;;12.70;57.60;;;;;;5032468;28;20985;-57
2023/01/11 03:37:11;;;;;;;1.87;1.10;;;12.90;57.40;;;;;;5030044;28;20440;-57
2023/01/11 03:39:45;;;;;;;4.40;1.43;;;13.00;57.30;;;;;;5025538;28;20443;-57
2023/01/11 03:42:14;;;;;;;1.33;1.10;;;12.80;57.50;;;;;;5030719;28;20463;-57
2023/01/11 03:44:45;;;;;;;1.40;1.20;;;12.70;57.80;;;;;;5027530;28;20443;-57
2023/01/11 03:47:15;;;;;;;2.30;1.23;;;12.60;57.80;;;;;;5026068;28;20463;-57
2023/01/11 03:49:43;;;;;;;1.37;1.27;;;12.60;58.00;;;;;;5025289;28;20438;-57
2023/01/11 03:52:11;;;;;;;2.60;1.40;;;12.70;58.00;;;;;;5026111;28;20538;-57
2023/01/11 03:54:38;;;;;;;1.20;1.10;;;12.70;58.00;;;;;;5026547;28;20526;-57
2023/01/11 03:57:17;;;;;;;1.20;1.07;;;12.40;58.30;;;;;;5027835;28;20826;-57
2023/01/11 03:59:43;;;;;;;1.00;0.83;;;12.30;58.80;;;;;;5018323;28;20454;-57
2023/01/11 04:02:17;;;;;;;2.50;1.20;;;12.50;58.90;;;;;;5029849;28;20982;-57
2023/01/11 04:04:43;;;;;;;1.00;0.90;;;12.70;58.50;;;;;;5029679;28;20232;-57
2023/01/11 04:07:08;;;;;;;1.60;1.10;;;12.80;58.10;;;;;;5028804;28;20447;-57
2023/01/11 04:09:34;;;;;;;0.80;0.80;;;12.70;58.20;;;;;;5026774;28;20458;-57
2023/01/11 04:12:00;;;;;;;1.20;1.10;;;12.90;58.20;;;;;;5019709;28;20201;-57
2023/01/11 04:14:25;;;;;;;5.47;1.10;;;12.80;58.20;;;;;;5023464;28;20603;-57
2023/01/11 04:16:51;;;;;;;1.20;0.80;;;12.90;58.40;;;;;;5031212;28;20201;-57
2023/01/11 04:19:16;;;;;;;1.10;0.80;;;12.90;58.30;;;;;;5021103;28;20190;-59
2023/01/11 04:21:42;;;;;;;1.13;0.80;;;13.00;58.30;;;;;;5029027;28;20313;-57
2023/01/11 04:24:07;;;;;;;1.70;1.00;;;12.90;58.40;;;;;;5031809;28;20193;-58
2023/01/11 04:26:33;;;;;;;0.87;0.87;;;13.00;58.40;;;;;;5029092;28;20924;-57
2023/01/11 04:28:59;;;;;;;1.20;0.70;;;12.80;58.70;;;;;;5029434;28;20188;-57
2023/01/11 04:31:24;;;;;;;1.40;0.90;;;12.80;59.00;;;;;;5025095;28;20285;-58
2023/01/11 04:33:50;;;;;;;0.73;0.73;;;13.00;58.80;;;;;;5031430;28;20217;-58
2023/01/11 04:36:15;;;;;;;0.93;0.83;;;13.10;58.50;;;;;;5023002;28;20196;-58
2023/01/11 04:38:41;;;;;;;1.73;0.70;;;13.00;58.50;;;;;;5029587;28;20205;-58
2023/01/11 04:43:55;;;;;;;0.70;0.60;;;13.10;58.40;;;;;;5024666;28;20240;-58
2023/01/11 04:46:24;;;;;;;0.80;0.80;;;13.10;58.50;;;;;;5022248;28;20539;-58
2023/01/11 04:48:50;;;;;;;0.60;0.60;;;13.10;58.80;;;;;;5032429;28;20455;-57
2023/01/11 04:51:15;;;;;;;1.37;0.83;;;13.20;58.90;;;;;;5028335;28;20440;-57
2023/01/11 04:53:41;;;;;;;0.90;0.90;;;13.00;58.90;;;;;;5026173;28;21056;-59
2023/01/11 04:56:07;;;;;;;2.43;1.07;;;12.80;59.60;;;;;;5034073;28;20660;-58
2023/01/11 04:58:34;;;;;;;2.20;0.73;;;12.90;59.60;;;;;;5030700;28;20543;-58
2023/01/11 05:01:00;;;;;;;0.83;0.80;;;13.00;59.40;;;;;;5026378;28;20433;-58
2023/01/11 05:03:26;;;;;;;1.33;0.60;;;13.10;59.80;;;;;;5013941;28;20814;-58
2023/01/11 05:05:59;;;;;;;1.27;0.73;;;13.20;59.20;;;;;;5027612;28;20182;-58
2023/01/11 05:08:27;;;;;;;0.97;0.73;;;13.20;59.20;;;;;;5029076;28;20202;-58
2023/01/11 05:11:00;;;;;;;1.47;0.80;;;13.20;59.30;;;;;;5024208;28;20535;-58
2023/01/11 05:13:41;;;;;;;0.90;0.90;;;13.30;59.10;;;;;;5021708;28;20486;-58
2023/01/11 05:16:18;;;;;;;1.40;1.30;;;13.30;59.20;;;;;;5025021;28;20854;-58
2023/01/11 05:18:49;;;;;;;0.63;0.63;;;13.10;59.60;;;;;;5028073;28;20508;-58
2023/01/11 05:21:17;;;;;;;1.80;0.77;;;13.10;60.00;;;;;;5024855;28;20471;-58
2023/01/11 05:23:43;;;;;;;0.70;0.70;;;13.10;60.60;;;;;;5029366;28;21036;-58
2023/01/11 05:26:12;;;;;;;1.33;0.70;;;13.00;61.20;;;;;;5025570;28;21393;-58
2023/01/11 05:28:38;;;;;;;0.87;0.67;;;13.00;61.70;;;;;;5023464;28;20436;-59
2023/01/11 05:31:04;;;;;;;0.50;0.50;;;12.90;62.00;;;;;;5031620;28;20428;-58
2023/01/11 05:33:30;;;;;;;0.67;0.67;;;12.90;62.30;;;;;;5026510;28;20476;-58
2023/01/11 05:35:59;;;;;;;1.37;1.00;;;13.00;62.00;;;;;;5023604;28;20916;-58
2023/01/11 05:38:26;;;;;;;0.70;0.70;;;13.20;61.20;;;;;;5020372;28;20189;-59
2023/01/11 05:41:00;;;;;;;2.03;0.60;;;13.40;60.70;;;;;;5024989;28;20428;-58
2023/01/11 05:43:26;;;;;;;1.23;0.90;;;13.30;60.60;;;;;;5013690;28;20495;-58
2023/01/11 05:45:52;;;;;;;1.00;0.90;;;13.30;60.60;;;;;;5020522;28;20433;-58
2023/01/11 05:48:18;;;;;;;1.33;1.00;;;13.20;60.60;;;;;;5024029;28;20793;-58
2023/01/11 05:50:52;;;;;;;1.10;1.00;;;13.20;60.40;;;;;;5027587;28;20204;-58
2023/01/11 05:53:19;;;;;;;1.03;0.93;;;13.20;60.40;;;;;;5025214;28;20488;-58
2023/01/11 05:55:53;;;;;;;1.37;0.90;;;13.30;60.00;;;;;;5022235;28;20444;-58
2023/01/11 05:58:19;;;;;;;0.83;0.70;;;13.50;59.80;;;;;;5023466;28;20806;-59
2023/01/11 06:00:53;;;;;;;2.27;1.30;;;13.40;59.40;;;;;;5021272;28;20432;-58
2023/01/11 06:03:20;;;;;;;2.20;1.60;;;13.40;59.70;;;;;;5022506;28;20252;-58
2023/01/11 06:05:46;;;;;;;1.57;1.27;;;13.30;59.70;;;;;;5024681;28;20443;-59
2023/01/11 06:08:12;;;;;;;1.63;1.10;;;13.10;60.60;;;;;;5024336;28;20433;-59
2023/01/11 06:10:38;;;;;;;1.50;1.40;;;13.20;62.40;;;;;;5022461;28;20431;-59
2023/01/11 06:15:48;;;;;;;1.23;1.13;;;13.40;61.00;;;;;;5024674;28;20247;-59
2023/01/11 06:18:14;;;;;;;0.77;0.77;;;13.40;59.80;;;;;;5026431;28;20424;-59
2023/01/11 06:20:40;;;;;;;2.20;1.10;;;13.30;60.00;;;;;;5020701;28;20197;-59
2023/01/11 06:23:05;;;;;;;1.20;1.10;;;13.20;59.90;;;;;;5022377;28;20193;-59
2023/01/11 06:25:36;;;;;;;1.20;1.10;;;13.10;60.20;;;;;;5020392;28;20543;-59
2023/01/11 06:28:05;;;;;;;0.90;0.90;;;13.00;60.40;;;;;;5021622;28;20197;-59
2023/01/11 06:30:30;;;;;;;1.70;1.20;;;13.00;61.10;;;;;;5023473;28;20823;-59
2023/01/11 06:33:04;;;;;;;1.13;0.87;;;13.20;60.70;;;;;;5024718;28;20484;-58
2023/01/11 06:35:36;;;;;;;3.53;0.90;;;13.20;59.90;;;;;;5022362;28;20238;-58
2023/01/11 06:38:01;;;;;;;2.70;1.40;;;13.20;60.40;;;;;;5011890;28;20448;-59
2023/01/11 06:40:28;;;;;;;1.33;1.13;;;13.30;60.60;;;;;;5026228;28;20431;-59
2023/01/11 06:42:53;;;;;;;2.63;1.80;;;13.30;60.30;;;;;;5021265;28;20607;-58
2023/01/11 06:45:19;;;;;;;1.30;0.90;;;13.40;60.70;;;;;;5017992;28;20539;-59
2023/01/11 06:47:45;;;;;;;0.73;0.70;;;13.20;60.20;;;;;;5027879;28;20189;-59
2023/01/11 06:50:10;;;;;;;1.77;1.00;;;12.80;61.30;;;;;;5027362;28;20197;-58
2023/01/11 06:52:36;;;;;;;2.10;1.37;;;12.80;62.10;;;;;;5021199;28;20291;-58
2023/01/11 06:55:02;;;;;;;1.07;0.90;;;13.00;62.00;;;;;;5026028;28;20270;-59
2023/01/11 06:57:28;;;;;;;1.00;1.00;;;12.90;61.70;;;;;;5022293;28;20201;-58
2023/01/11 06:59:53;;;;;;;0.80;0.80;;;12.90;61.70;;;;;;5023626;28;20272;-59
2023/01/11 07:02:19;;;;;;;3.03;1.50;;;12.90;62.10;;;;;;5024466;28;21172;-59
2023/01/11 07:04:45;;;;;;;0.97;0.93;;;13.20;61.30;;;;;;5021734;28;20249;-59
2023/01/11 07:07:10;;;;;;;1.37;0.80;;;13.10;61.20;;;;;;5020343;28;20200;-58
2023/01/11 07:09:36;;;;;;;1.10;1.00;;;13.30;61.20;;;;;;5022474;28;20220;-59
2023/01/11 07:12:01;;;;;;;1.37;1.27;;;13.30;60.60;;;;;;5026847;28;20190;-58
2023/01/11 07:14:27;;;;;;;1.03;1.03;;;13.40;60.90;;;;;;5021916;28;20229;-58
2023/01/11 07:16:53;;;;;;;1.67;1.00;;;13.70;60.00;;;;;;5022411;28;20196;-59
2023/01/11 07:19:18;;;;;;;1.03;0.93;;;13.80;59.50;;;;;;5026031;28;20645;-59
2023/01/11 07:21:44;;;;;;;1.20;0.93;;;14.10;59.10;;;;;;5027390;28;20205;-59
2023/01/11 07:24:09;;;;;;;1.53;1.00;;;14.00;58.40;;;;;;5025842;28;20191;-58
2023/01/11 07:26:40;;;;;;;1.80;1.43;;;13.80;59.00;;;;;;5025039;28;20304;-59
2023/01/11 07:29:09;;;;;;;1.70;0.93;;;13.70;59.30;;;;;;5016329;28;20659;-59
2023/01/11 07:31:34;;;;;;;1.40;1.17;;;13.70;59.40;;;;;;5024253;28;20437;-59
2023/01/11 07:34:00;;;;;;;1.07;1.07;;;13.60;59.70;;;;;;5022529;28;20487;-59
2023/01/11 07:36:26;;;;;;;1.20;1.10;;;13.60;59.70;;;;;;5021944;28;20533;-58
2023/01/11 07:38:51;;;;;;;1.70;1.47;;;13.60;59.70;;;;;;5018924;28;20185;-58
2023/01/11 07:44:01;;;;;;;2.30;1.40;;;13.90;59.00;;;;;;5026473;28;20208;-59
2023/01/11 07:46:26;;;;;;;2.97;1.57;;;13.80;59.20;;;;;;5020394;28;20441;-59
2023/01/11 07:48:52;;;;;;;1.57;1.10;;;13.80;59.10;;;;;;5018107;28;20240;-59
2023/01/11 07:51:21;;;;;;;1.17;1.07;;;14.10;59.00;;;;;;5025556;28;20625;-58
2023/01/11 07:53:46;;;;;;;1.30;1.20;;;14.30;58.50;;;;;;5025038;28;20228;-58
2023/01/11 07:56:12;;;;;;;1.20;0.80;;;14.50;58.20;;;;;;5026865;28;20915;-58
2023/01/11 07:58:37;;;;;;;1.07;0.97;;;14.70;57.80;;;;;;5023155;28;20205;-58
2023/01/11 08:01:04;;;;;;;0.87;0.87;;;14.70;57.60;;;;;;5021360;28;20189;-59
2023/01/11 08:03:30;;;;;;;1.83;1.30;;;14.80;57.30;;;;;;5013646;28;20222;-58
2023/01/11 08:05:56;;;;;;;1.10;1.00;;;14.80;57.10;;;;;;5018976;28;20939;-59
2023/01/11 08:08:21;;;;;;;1.70;1.60;;;14.90;57.20;;;;;;5016559;28;20607;-58
2023/01/11 08:14:37;;;;;;;1.23;1.13;;;14.90;57.10;;;;;;5027313;28;20224;-58
2023/01/11 08:16:17;;;;;;;2.53;1.37;;;14.90;57.40;;;;;;5026724;28;20525;-59
2023/01/11 08:18:43;;;;;;;2.10;1.73;;;15.00;57.30;;;;;;5029535;28;20903;-58
2023/01/11 08:21:08;;;;;;;2.33;2.10;;;15.10;56.80;;;;;;5033983;28;20199;-58
2023/01/11 08:23:34;;;;;;;1.77;1.60;;;15.00;57.40;;;;;;5026826;28;20185;-58
2023/01/11 08:26:00;;;;;;;2.30;1.80;;;15.10;56.60;;;;;;5025305;28;20208;-59
2023/01/11 08:28:26;;;;;;;1.90;1.77;;;15.10;56.60;;;;;;5028329;28;20197;-58
2023/01/11 08:30:51;;;;;;;1.83;1.43;;;15.20;56.70;;;;;;5026135;28;20436;-58
2023/01/11 08:33:17;;;;;;;2.50;1.20;;;15.20;56.40;;;;;;5015084;28;20237;-58
2023/01/11 08:35:43;;;;;;;2.33;1.50;;;15.00;56.60;;;;;;5024132;28;20207;-58
2023/01/11 08:38:09;;;;;;;2.93;1.50;;;15.20;56.70;;;;;;5028529;28;20216;-59
2023/01/11 08:40:35;;;;;;;2.70;1.40;;;15.30;56.40;;;;;;5025856;28;20190;-59
2023/01/11 08:43:00;;;;;;;1.83;1.73;;;15.30;56.40;;;;;;5024318;28;20551;-58
2023/01/11 08:45:26;;;;;;;2.40;2.20;;;15.20;56.30;;;;;;5030961;28;20436;-58
2023/01/11 08:47:53;;;;;;;2.50;2.30;;;15.20;56.70;;;;;;5033849;28;20194;-59
2023/01/11 08:50:19;;;;;;;3.23;2.73;;;15.00;56.80;;;;;;5021686;28;20197;-59
2023/01/11 08:52:45;;;;;;;2.73;2.00;;;14.60;57.90;;;;;;5024565;28;20507;-59
2023/01/11 08:55:11;;;;;;;3.77;1.70;;;14.50;58.40;;;;;;5017789;28;20916;-58
2023/01/11 08:57:36;;;;;;;2.43;1.60;;;14.10;58.40;;;;;;5013883;28;20218;-58
2023/01/11 09:00:06;;;;;;;2.60;2.40;;;13.90;59.70;;;;;;5024470;28;20185;-58
2023/01/11 09:02:32;;;;;;;2.10;1.60;;;14.10;59.70;;;;;;5017847;28;20189;-58
2023/01/11 09:04:58;;;;;;;2.27;1.90;;;14.20;59.10;;;;;;5018560;28;20435;-58
2023/01/11 09:07:24;;;;;;;2.27;1.73;;;14.40;58.60;;;;;;5033331;28;20435;-58
2023/01/11 09:09:50;;;;;;;2.77;1.97;;;14.20;58.30;;;;;;5032911;28;20193;-58
2023/01/11 09:12:17;;;;;;;2.80;1.60;;;14.40;58.70;;;;;;5030215;28;20194;-58
2023/01/11 09:14:42;;;;;;;1.60;1.47;;;14.40;58.40;;;;;;5026925;28;20482;-58
2023/01/11 09:17:08;;;;;;;1.87;1.70;;;14.30;58.40;;;;;;5014767;28;21226;-58
2023/01/11 09:19:34;;;;;;;2.13;1.90;;;14.30;58.70;;;;;;5019321;28;20281;-58
2023/01/11 09:22:01;;;;;;;4.20;2.10;;;14.20;58.80;;;;;;5032762;28;20204;-58
2023/01/11 09:24:28;;;;;;;4.20;2.00;;;14.30;58.80;;;;;;5031237;28;20272;-58
2023/01/11 09:26:56;;;;;;;3.60;2.43;;;14.40;58.40;;;;;;5014770;28;20425;-58
2023/01/11 09:29:21;;;;;;;2.87;1.60;;;14.60;58.10;;;;;;5027566;28;20958;-58
2023/01/11 09:31:47;;;;;;;1.57;1.47;;;14.70;57.70;;;;;;5027126;28;20436;-58
2023/01/11 09:34:13;;;;;;;1.67;1.57;;;14.80;57.20;;;;;;5023151;28;20221;-58
2023/01/11 09:36:39;;;;;;;3.00;2.00;;;14.80;57.20;;;;;;5031981;28;20188;-58
2023/01/11 09:39:09;;;;;;;3.00;1.67;;;14.90;57.30;;;;;;5033089;28;20412;-58
2023/01/11 09:42:16;;;;;;;3.13;2.03;;;14.90;57.20;;;;;;5013859;28;20459;-59
2023/01/11 09:44:56;;;;;;;2.80;1.70;;;15.00;57.40;;;;;;5018547;28;20457;-58
2023/01/11 09:47:42;;;;;;;2.10;1.60;;;15.10;57.10;;;;;;5012683;28;20527;-58
2023/01/11 09:50:16;;;;;;;2.73;1.50;;;15.30;56.80;;;;;;5019005;28;20531;-58
2023/01/11 09:52:46;;;;;;;1.67;1.57;;;15.40;56.70;;;;;;5013167;28;20488;-58
2023/01/11 09:55:21;;;;;;;1.93;1.60;;;15.40;56.50;;;;;;5020281;28;20436;-59
2023/01/11 09:58:04;;;;;;;1.23;1.13;;;15.40;56.50;;;;;;5025310;28;20450;-58
2023/01/11 10:00:36;;;;;;;1.00;1.00;;;15.30;56.60;;;;;;5024510;28;20447;-58
2023/01/11 10:03:16;;;;;;;1.37;1.27;;;15.20;57.10;;;;;;5024572;28;20970;-58
2023/01/11 10:06:08;;;;;;;1.27;1.17;;;15.20;57.10;;;;;;5025709;28;20446;-58
2023/01/11 10:09:04;;;;;;;1.70;1.60;;;15.10;57.30;;;;;;5022927;28;20527;-58
2023/01/11 10:11:42;;;;;;;0.93;0.93;;;15.00;57.50;;;;;;5022978;28;20447;-58
2023/01/11 10:14:38;;;;;;;1.20;1.10;;;14.90;57.70;;;;;;5020803;28;20495;-58
2023/01/11 10:17:06;;;;;;;2.37;1.20;;;15.00;57.80;;;;;;5023874;28;20459;-58
2023/01/11 10:19:40;;;;;;;0.93;0.93;;;15.00;57.70;;;;;;5024656;28;20471;-58
2023/01/11 10:22:22;;;;;;;3.40;1.10;;;15.00;57.90;;;;;;5028759;28;20567;-58
2023/01/11 10:24:56;;;;;;;1.50;1.23;;;15.10;57.80;;;;;;5021895;28;20996;-58
2023/01/11 10:27:35;;;;;;;1.63;1.47;;;15.20;57.50;;;;;;5029315;28;20806;-58
2023/01/11 10:30:32;;;;;;;2.70;1.30;;;15.20;57.20;;;;;;5024627;28;20459;-58
2023/01/11 10:33:37;;;;;;;1.27;1.17;;;15.20;57.20;;;;;;5021527;28;20519;-58
2023/01/11 10:36:25;;;;;;;1.73;1.40;;;15.10;57.50;;;;;;5023225;28;20455;-58
2023/01/11 10:39:54;;;;;;;1.97;1.23;;;15.10;57.70;;;;;;5026985;28;20506;-58
2023/01/11 10:42:27;;;;;;;1.37;1.23;;;15.00;57.80;;;;;;5024199;28;20786;-58
2023/01/11 10:45:01;;;;;;;1.73;1.13;;;15.00;57.70;;;;;;5029135;28;20626;-58
2023/01/11 10:48:00;;;;;;;1.40;1.30;;;15.10;57.70;;;;;;5024895;28;20518;-58
2023/01/11 10:50:31;;;;;;;1.70;1.20;;;15.30;57.50;;;;;;5024081;28;20964;-58
2023/01/11 10:53:06;;;;;;;1.17;1.07;;;15.20;57.20;;;;;;5030057;28;20483;-58
2023/01/11 10:55:57;;;;;;;1.60;1.50;;;15.20;57.40;;;;;;5028250;28;20436;-58
2023/01/11 10:58:45;;;;;;;1.93;1.20;;;15.30;57.40;;;;;;5024432;28;20535;-58
2023/01/11 11:01:47;;;;;;;1.20;1.10;;;15.30;57.30;;;;;;5030154;28;20513;-58
2023/01/11 11:04:31;;;;;;;2.40;1.30;;;15.40;57.30;;;;;;5021396;28;20472;-58
2023/01/11 11:07:05;;;;;;;3.40;1.50;;;15.40;57.00;;;;;;5024238;28;20443;-58
2023/01/11 11:10:08;;;;;;;1.40;1.30;;;15.50;56.90;;;;;;5022558;28;20480;-59
2023/01/11 11:12:40;;;;;;;1.53;1.43;;;15.50;57.30;;;;;;5030638;28;20888;-58
2023/01/11 11:15:19;;;;;;;1.80;1.10;;;15.50;57.60;;;;;;5028610;28;20445;-58
2023/01/11 11:17:49;;;;;;;1.23;1.13;;;15.60;57.90;;;;;;5024463;28;20443;-58
2023/01/11 11:20:24;;;;;;;1.40;1.30;;;15.60;58.00;;;;;;5023475;28;20793;-58
2023/01/11 11:22:52;;;;;;;1.30;1.20;;;15.50;58.30;;;;;;5011860;28;20451;-58
2023/01/11 11:25:36;;;;;;;1.97;1.43;;;15.60;58.40;;;;;;5027397;28;20460;-58
2023/01/11 11:28:29;;;;;;;1.57;1.20;;;15.70;58.30;;;;;;5024874;28;20554;-58
2023/01/11 11:30:58;;;;;;;2.17;1.70;;;15.80;58.30;;;;;;5016989;28;20447;-58
2023/01/11 11:33:36;;;;;;;1.40;1.30;;;15.80;58.60;;;;;;5026536;28;20595;-58
2023/01/11 11:36:03;;;;;;;5.40;1.47;;;15.70;58.90;;;;;;5021184;28;20436;-59
2023/01/11 11:38:40;;;;;;;1.10;1.00;;;15.70;59.40;;;;;;5028520;28;20455;-58
2023/01/11 11:41:15;;;;;;;1.53;1.43;;;15.40;59.40;;;;;;5027672;28;20825;-58
2023/01/11 11:43:50;;;;;;;1.40;1.30;;;15.40;59.90;;;;;;5024900;28;20832;-58
2023/01/11 11:46:19;;;;;;;1.50;1.10;;;15.60;59.80;;;;;;5022442;28;20518;-58
2023/01/11 11:49:16;;;;;;;1.40;1.30;;;15.70;59.70;;;;;;5026091;28;20994;-59
2023/01/11 11:51:44;;;;;;;1.80;1.67;;;15.70;59.90;;;;;;5029827;28;20503;-58
2023/01/11 11:54:35;;;;;;;1.70;1.20;;;15.70;60.00;;;;;;5026191;28;21035;-58
2023/01/11 11:57:21;;;;;;;1.60;1.37;;;15.60;60.60;;;;;;5026037;28;20650;-58
2023/01/11 11:59:49;;;;;;;0.77;0.70;;;15.20;61.60;;;;;;5032176;28;20448;-58
2023/01/11 12:02:23;;;;;;;0.90;0.90;;;14.80;63.20;;;;;;5020542;28;20947;-59
2023/01/11 12:04:50;;;;;;;0.93;0.93;;;14.90;64.10;;;;;;5033075;28;20496;-58
2023/01/11 12:07:20;;;;;;;1.40;1.17;;;15.10;63.80;;;;;;5029443;28;20436;-58
2023/01/11 12:09:49;;;;;;;1.00;0.90;;;15.00;64.50;;;;;;5020348;28;20436;-58
2023/01/11 12:12:20;;;;;;;1.37;0.80;;;14.80;65.30;;;;;;5032113;28;20451;-58
2023/01/11 12:15:07;;;;;;;1.20;0.80;;;14.40;66.40;;;;;;5023433;28;20432;-58
2023/01/11 12:17:32;;;;;;;1.00;0.90;;;14.60;67.20;;;;;;5028056;28;20443;-59
2023/01/11 12:19:58;;;;;;;2.37;1.10;;;14.40;67.50;;;;;;5027747;28;20432;-59
2023/01/11 12:22:26;;;;;;;1.00;0.93;;;14.50;68.20;;;;;;5016532;28;20660;-59
2023/01/11 12:25:11;;;;;;;3.20;1.00;;;14.70;67.70;;;;;;5025529;28;20196;-59
2023/01/11 12:28:07;;;;;;;1.73;0.80;;;14.70;67.10;;;;;;5028105;28;20517;-59
2023/01/11 12:30:41;;;;;;;1.33;0.80;;;14.80;67.20;;;;;;5030125;28;20432;-58
2023/01/11 12:33:07;;;;;;;1.43;1.17;;;14.70;67.50;;;;;;5028326;28;21085;-59
2023/01/11 12:36:00;;;;;;;0.87;0.70;;;14.90;67.10;;;;;;5031601;28;20428;-59
2023/01/11 12:38:35;;;;;;;0.73;0.73;;;14.80;67.10;;;;;;5028945;28;20540;-59
2023/01/11 12:41:42;;;;;;;1.10;1.00;;;15.00;67.10;;;;;;5029366;28;20431;-58
2023/01/11 12:44:19;;;;;;;0.70;0.70;;;14.80;67.10;;;;;;5031536;28;20487;-59
2023/01/11 12:47:09;;;;;;;1.40;0.93;;;14.60;67.90;;;;;;5020055;28;20447;-59
2023/01/11 12:50:13;;;;;;;1.10;0.90;;;14.80;68.00;;;;;;5032052;28;20800;-59
2023/01/11 12:52:39;;;;;;;1.00;0.90;;;14.70;67.60;;;;;;5021521;28;20484;-59
2023/01/11 12:55:52;;;;;;;1.03;1.00;;;14.70;67.70;;;;;;5025326;28;20501;-59
2023/01/11 12:58:26;;;;;;;1.07;0.93;;;14.70;67.90;;;;;;4949400;28;20204;-59
2023/01/11 13:01:22;;;;;;;1.57;0.90;;;14.60;68.20;;;;;;4946200;28;20509;-59
2023/01/11 13:03:58;;;;;;;1.67;1.00;;;14.80;67.50;;;;;;5005611;28;20960;-59
2023/01/11 13:06:24;;;;;;;0.80;0.80;;;14.80;68.10;;;;;;5029156;28;20448;-59
2023/01/11 13:09:01;;;;;;;0.77;0.70;;;14.60;67.80;;;;;;5025832;28;20791;-59
2023/01/11 13:11:50;;;;;;;1.23;0.80;;;14.60;68.30;;;;;;5024763;28;20208;-59
2023/01/11 13:14:31;;;;;;;0.80;0.80;;;14.60;69.40;;;;;;5027916;28;20897;-58
2023/01/11 13:17:27;;;;;;;1.37;1.10;;;14.30;69.60;;;;;;5014870;28;20440;-58
2023/01/11 13:20:14;;;;;;;0.90;0.90;;;14.20;70.90;;;;;;5021624;28;20480;-58
2023/01/11 13:22:47;;;;;;;0.90;0.90;;;14.20;71.80;;;;;;5025214;28;20486;-59
2023/01/11 13:25:26;;;;;;;1.63;1.20;;;14.30;72.20;;;;;;5026237;28;20488;-58
2023/01/11 13:27:54;;;;;;;0.97;0.70;;;14.40;71.50;;;;;;5028029;28;20447;-58
2023/01/11 13:30:23;;;;;;;0.97;0.93;;;14.50;70.80;;;;;;5027771;28;20500;-58
2023/01/11 13:33:00;;;;;;;1.20;1.10;;;14.80;70.80;;;;;;5022424;28;20487;-58
2023/01/11 13:35:41;;;;;;;2.30;1.23;;;14.90;69.80;;;;;;5028759;28;20439;-58
2023/01/11 13:38:35;;;;;;;2.43;1.00;;;15.00;69.80;;;;;;5029533;28;20448;-58
2023/01/11 13:41:16;;;;;;;1.30;1.20;;;15.00;70.00;;;;;;5021109;28;20448;-58
2023/01/11 13:44:13;;;;;;;1.00;0.90;;;15.00;70.00;;;;;;5026204;28;20470;-58
2023/01/11 13:49:21;;;;;;;1.40;1.30;;;14.90;70.90;;;;;;5047299;22;20504;-58